Terminal Aerodrome Forecast
Issued by NWS

Home | Current Version | Previous Version | Text Only | Print | Product List | Glossary On
Versions: 1 2 3 4 5 6 7 8 9 10 11 12 13 14 15 16
000
FTUS41 KBGM 272328
TAFRME
TAF
KRME 272328Z 2800/2824 30010KT P6SM SCT025 OVC035
     FM280200 31005KT P6SM OVC025
     FM281000 32007KT P6SM BKN035
     FM281500 32012G20KT P6SM BKN040=

USA.gov is the U.S. government's official web portal to all federal, state and local government web resources and services.